createdAt,value
2017-10-20T00:01:03.442Z,71.7
2017-10-20T00:02:16.010Z,71.42
2017-10-20T00:03:28.588Z,71.7
2017-10-20T00:04:41.152Z,71.42
2017-10-20T00:05:53.322Z,71.51
2017-10-20T00:07:05.570Z,71.51
2017-10-20T00:08:18.143Z,71.61
2017-10-20T00:09:30.709Z,71.89
2017-10-20T00:10:42.955Z,71.7
2017-10-20T00:11:55.530Z,70.65
2017-10-20T00:13:08.096Z,71.42
2017-10-20T00:14:20.341Z,71.42
2017-10-20T00:15:32.262Z,71.32
2017-10-20T00:16:44.833Z,71.42
2017-10-20T00:17:57.403Z,71.32
2017-10-20T00:19:09.653Z,70.65
2017-10-20T00:20:21.923Z,70.47
2017-10-20T00:21:34.166Z,70.84
2017-10-20T00:22:46.735Z,70.84
2017-10-20T00:23:59.306Z,70.65
2017-10-20T00:25:11.553Z,70.75
2017-10-20T00:26:24.127Z,70.27
2017-10-20T00:27:36.385Z,70.37
2017-10-20T00:28:48.947Z,70.08
2017-10-20T00:30:01.516Z,70.27
2017-10-20T00:31:14.106Z,69.89
2017-10-20T00:32:26.652Z,70.18
2017-10-20T00:33:39.221Z,70.27
2017-10-20T00:34:51.142Z,69.99
2017-10-20T00:36:03.730Z,70.47
2017-10-20T00:37:15.982Z,70.84
2017-10-20T00:38:28.230Z,70.65
2017-10-20T00:39:40.800Z,70.65
2017-10-20T00:40:53.370Z,70.75
2017-10-20T00:42:05.295Z,70.75
2017-10-20T00:43:17.537Z,70.27
2017-10-20T00:44:29.782Z,70.56
2017-10-20T00:45:42.354Z,70.47
2017-10-20T00:46:54.924Z,70.65
2017-10-20T00:48:07.500Z,70.84
2017-10-20T00:49:20.040Z,70.84
2017-10-20T00:50:32.611Z,70.72
2017-10-20T00:51:45.181Z,71.09
2017-10-20T00:52:57.752Z,71
2017-10-20T00:54:10.330Z,70.94
2017-10-20T00:55:22.593Z,71.47
2017-10-20T00:56:35.165Z,71.09
2017-10-20T00:57:47.734Z,70.62
2017-10-20T00:58:59.980Z,70.84
2017-10-20T01:00:12.475Z,71.13
2017-10-20T01:01:25.050Z,71
2017-10-20T01:02:37.617Z,71.47
2017-10-20T01:03:49.881Z,71.19
2017-10-20T01:05:02.458Z,71.09
2017-10-20T01:06:15.060Z,71.76
2017-10-20T01:07:27.300Z,71.38
2017-10-20T01:08:39.871Z,71.67
2017-10-20T01:09:51.809Z,71.67
2017-10-20T01:11:04.362Z,72.05
2017-10-20T01:12:16.937Z,71.57
2017-10-20T01:13:29.181Z,71.8
2017-10-20T01:14:41.425Z,72.14
2017-10-20T01:15:53.668Z,72.62
2017-10-20T01:17:05.915Z,72.62
2017-10-20T01:18:18.177Z,72.14
2017-10-20T01:19:30.107Z,71.76
2017-10-20T01:20:42.702Z,71.57
2017-10-20T01:21:55.273Z,71.95
2017-10-20T01:23:07.844Z,72.52
2017-10-20T01:24:20.444Z,71.86
2017-10-20T01:25:32.684Z,72.52
2017-10-20T01:26:44.606Z,72.24
2017-10-20T01:27:57.153Z,71.28
2017-10-20T01:29:09.397Z,72.42
2017-10-20T01:30:21.972Z,71.19
2017-10-20T01:31:34.563Z,71.95
2017-10-20T01:32:46.751Z,71.67
2017-10-20T01:33:59.304Z,72.24
2017-10-20T01:35:11.224Z,72.71
2017-10-20T01:36:23.821Z,72.9
2017-10-20T01:37:36.391Z,72.62
2017-10-20T01:38:48.961Z,72.33
2017-10-20T01:40:01.534Z,71.86
2017-10-20T01:41:13.778Z,71.76
2017-10-20T01:42:25.708Z,71.38
2017-10-20T01:43:38.286Z,71.95
2017-10-20T01:44:50.864Z,71.28
2017-10-20T01:46:03.112Z,72.71
2017-10-20T01:47:15.699Z,71.86
2017-10-20T01:48:28.251Z,71.57
2017-10-20T01:49:40.822Z,71.95
2017-10-20T01:50:53.394Z,71.57
2017-10-20T01:52:05.640Z,71.95
2017-10-20T01:53:18.210Z,71.57
2017-10-20T01:54:30.780Z,71.28
2017-10-20T01:55:43.352Z,72.14
2017-10-20T01:56:55.903Z,71.57
2017-10-20T01:58:08.467Z,72.05
2017-10-20T01:59:21.041Z,72.14
2017-10-20T02:00:33.283Z,71.86
2017-10-20T02:01:45.855Z,71.67
2017-10-20T02:02:58.424Z,72.62
2017-10-20T02:04:11.022Z,72.14
2017-10-20T02:05:23.515Z,71.95
2017-10-20T02:06:35.763Z,72.81
2017-10-20T02:07:48.332Z,73
2017-10-20T02:09:00.579Z,73
2017-10-20T02:10:13.148Z,72.81
2017-10-20T02:11:25.394Z,72.39
2017-10-20T02:12:37.644Z,72.3
2017-10-20T02:13:50.211Z,71.72
2017-10-20T02:15:02.774Z,72.01
2017-10-20T02:16:15.028Z,73.15
2017-10-20T02:17:27.603Z,72.71
2017-10-20T02:18:39.895Z,72.11
2017-10-20T02:19:52.468Z,71.82
2017-10-20T02:21:05.035Z,72.39
2017-10-20T02:22:17.606Z,72.49
2017-10-20T02:23:30.180Z,72.3
2017-10-20T02:24:42.747Z,72.2
2017-10-20T02:25:55.318Z,72.11
2017-10-20T02:27:07.888Z,72.3
2017-10-20T02:28:20.457Z,72.3
2017-10-20T02:29:32.705Z,71.63
2017-10-20T02:30:45.275Z,72.2
2017-10-20T02:31:57.846Z,73.06
2017-10-20T02:33:10.093Z,72.49
2017-10-20T02:34:22.662Z,72.01
2017-10-20T02:35:35.232Z,72.11
2017-10-20T02:36:47.153Z,72.58
2017-10-20T02:37:59.399Z,73.06
2017-10-20T02:39:11.653Z,72.67
2017-10-20T02:40:24.215Z,72.96
2017-10-20T02:41:36.490Z,72.39
2017-10-20T02:42:49.073Z,72.58
2017-10-20T02:44:01.027Z,72.2
2017-10-20T02:45:13.597Z,72.67
2017-10-20T02:46:26.169Z,72.11
2017-10-20T02:47:38.415Z,72.11
2017-10-20T02:48:50.960Z,72.67
2017-10-20T02:50:02.881Z,72.49
2017-10-20T02:51:15.126Z,72.49
2017-10-20T02:52:27.699Z,72.2
2017-10-20T02:53:40.267Z,72.77
2017-10-20T02:54:52.529Z,73.44
2017-10-20T02:56:04.783Z,72.67
2017-10-20T02:57:16.722Z,73.34
2017-10-20T02:58:29.300Z,72.58
2017-10-20T02:59:41.469Z,72.2
2017-10-20T03:00:54.047Z,71.82
2017-10-20T03:02:06.611Z,72.96
2017-10-20T03:03:19.183Z,72.49
2017-10-20T03:04:31.752Z,73.15
2017-10-20T03:05:43.998Z,73.06
2017-10-20T03:06:56.568Z,73.53
2017-10-20T03:08:08.492Z,73.82
2017-10-20T03:09:20.409Z,72.2
2017-10-20T03:10:32.657Z,73.15
2017-10-20T03:11:45.227Z,73.15
2017-10-20T03:12:57.796Z,72.96
2017-10-20T03:14:10.367Z,72.86
2017-10-20T03:15:22.938Z,72.39
2017-10-20T03:16:35.514Z,72.2
2017-10-20T03:17:48.080Z,72.11
2017-10-20T03:19:00.675Z,72.01
2017-10-20T03:20:12.921Z,71.25
2017-10-20T03:21:25.416Z,71.82
2017-10-20T03:22:37.354Z,71.34
2017-10-20T03:23:49.935Z,71.91
2017-10-20T03:25:02.180Z,71.82
2017-10-20T03:26:14.750Z,71.34
2017-10-20T03:27:27.347Z,72.01
2017-10-20T03:28:39.591Z,71.91
2017-10-20T03:29:51.836Z,72.01
2017-10-20T03:31:04.452Z,71.91
2017-10-20T03:32:16.727Z,72.11
2017-10-20T03:33:29.323Z,71.63
2017-10-20T03:34:41.244Z,72.01
2017-10-20T03:35:53.489Z,72.01
2017-10-20T03:37:05.409Z,72.01
2017-10-20T03:38:17.999Z,71.91
2017-10-20T03:39:30.576Z,72.11
2017-10-20T03:40:43.165Z,72.39
2017-10-20T03:41:55.718Z,72.67
2017-10-20T03:43:07.963Z,72.39
2017-10-20T03:44:20.534Z,71.91
2017-10-20T03:45:33.105Z,72.01
2017-10-20T03:46:45.675Z,71.69
2017-10-20T03:47:58.249Z,71.88
2017-10-20T03:49:10.492Z,71.88
2017-10-20T03:50:23.062Z,72.01
2017-10-20T03:51:35.652Z,71.97
2017-10-20T03:52:48.208Z,72.11
2017-10-20T03:54:00.777Z,72.2
2017-10-20T03:55:13.019Z,72.55
2017-10-20T03:56:25.266Z,71.97
2017-10-20T03:57:37.554Z,71.91
2017-10-20T03:58:50.106Z,71.78
2017-10-20T04:00:02.353Z,72.26
2017-10-20T04:01:14.274Z,72.16
2017-10-20T04:02:26.843Z,71.97
2017-10-20T04:03:39.089Z,71.69
2017-10-20T04:04:51.334Z,71.97
2017-10-20T04:06:03.906Z,71.72
2017-10-20T04:07:16.475Z,72.26
2017-10-20T04:08:29.047Z,71.31
2017-10-20T04:09:41.618Z,72.07
2017-10-20T04:10:54.188Z,71.59
2017-10-20T04:12:06.760Z,71.5
2017-10-20T04:13:19.005Z,71.97
2017-10-20T04:14:30.927Z,71.69
2017-10-20T04:15:43.171Z,72.35
2017-10-20T04:16:55.742Z,71.78
2017-10-20T04:18:08.313Z,71.97
2017-10-20T04:19:20.892Z,72.16
2017-10-20T04:20:32.804Z,72.07
2017-10-20T04:21:45.378Z,72.07
2017-10-20T04:22:57.944Z,71.97
2017-10-20T04:24:10.219Z,71.78
2017-10-20T04:25:22.786Z,71.5
2017-10-20T04:26:35.607Z,71.41
2017-10-20T04:27:48.168Z,71.31
2017-10-20T04:29:00.097Z,71.59
2017-10-20T04:30:12.670Z,71.88
2017-10-20T04:31:24.940Z,71.78
2017-10-20T04:32:36.860Z,71.5
2017-10-20T04:33:49.105Z,71.97
2017-10-20T04:35:01.344Z,71.41
2017-10-20T04:36:13.622Z,71.88
2017-10-20T04:37:25.868Z,71.88
2017-10-20T04:38:38.413Z,72.07
2017-10-20T04:39:50.985Z,71.78
2017-10-20T04:41:02.905Z,71.78
2017-10-20T04:42:15.475Z,71.31
2017-10-20T04:43:27.744Z,71.22
2017-10-20T04:44:39.345Z,71.59
2017-10-20T04:45:51.587Z,71.59
2017-10-20T04:47:04.157Z,71.5
2017-10-20T04:48:17.036Z,71.31
2017-10-20T04:49:29.615Z,71.5
2017-10-20T04:50:42.169Z,71.5
2017-10-20T04:51:54.740Z,71.5
2017-10-20T04:53:06.984Z,71.59
2017-10-20T04:54:19.530Z,71.59
2017-10-20T04:55:32.130Z,71.12
2017-10-20T04:56:44.697Z,71.02
2017-10-20T04:57:57.268Z,71.12
2017-10-20T04:59:10.093Z,70.74
2017-10-20T05:00:22.658Z,70.93
2017-10-20T05:01:35.231Z,70.54
2017-10-20T05:02:47.800Z,70.64
2017-10-20T05:04:00.054Z,70.74
2017-10-20T05:05:12.619Z,70.07
2017-10-20T05:06:24.862Z,70.17
2017-10-20T05:07:37.433Z,69.5
2017-10-20T05:08:49.982Z,69.5
2017-10-20T05:10:02.849Z,68.77
2017-10-20T05:11:15.094Z,69.06
2017-10-20T05:12:27.341Z,68.68
2017-10-20T05:13:39.911Z,68.59
2017-10-20T05:14:52.481Z,68.21
2017-10-20T05:16:05.052Z,68.01
2017-10-20T05:17:16.977Z,68.21
2017-10-20T05:18:29.544Z,67.54
2017-10-20T05:19:41.814Z,67.35
2017-10-20T05:20:54.064Z,66.97
2017-10-20T05:22:05.987Z,66.68
2017-10-20T05:23:18.552Z,66.87
2017-10-20T05:24:31.126Z,66.68
2017-10-20T05:25:43.043Z,66.3
2017-10-20T05:26:55.606Z,66.02
2017-10-20T05:28:08.176Z,66.02
2017-10-20T05:29:20.761Z,65.64
2017-10-20T05:30:33.326Z,65.35
2017-10-20T05:31:45.821Z,65.54
2017-10-20T05:32:58.396Z,65.16
2017-10-20T05:34:10.658Z,65.25
2017-10-20T05:35:22.583Z,65.38
2017-10-20T05:36:34.502Z,65.25
2017-10-20T05:37:46.448Z,65.19
2017-10-20T05:38:58.386Z,64.9
2017-10-20T05:40:10.316Z,65
2017-10-20T05:41:22.900Z,65.48
2017-10-20T05:42:35.080Z,65.48
2017-10-20T05:43:47.319Z,65.29
2017-10-20T05:44:59.874Z,65.38
2017-10-20T05:46:12.444Z,65.29
2017-10-20T05:47:24.689Z,65.77
2017-10-20T05:48:36.936Z,65.58
2017-10-20T05:49:49.184Z,65.77
2017-10-20T05:51:01.752Z,66.05
2017-10-20T05:52:14.322Z,66.24
2017-10-20T05:53:26.568Z,66.05
2017-10-20T05:54:39.130Z,66.72
2017-10-20T05:55:51.683Z,66.53
2017-10-20T05:57:03.934Z,66.72
2017-10-20T05:58:16.176Z,66.91
2017-10-20T05:59:28.121Z,67.29
2017-10-20T06:00:40.693Z,67.67
2017-10-20T06:01:53.266Z,67.86
2017-10-20T06:03:05.519Z,67.95
2017-10-20T06:04:17.774Z,67.86
2017-10-20T06:05:30.025Z,67.67
2017-10-20T06:06:42.595Z,67.67
2017-10-20T06:07:54.848Z,67.57
2017-10-20T06:09:07.088Z,67.95
2017-10-20T06:10:19.331Z,68.24
2017-10-20T06:11:31.601Z,68.33
2017-10-20T06:12:44.173Z,68.15
2017-10-20T06:13:56.750Z,68.05
2017-10-20T06:15:09.014Z,67.95
2017-10-20T06:16:21.261Z,68.24
2017-10-20T06:17:33.506Z,68.15
2017-10-20T06:18:45.751Z,68.52
2017-10-20T06:19:58.322Z,68.62
2017-10-20T06:21:10.586Z,68.43
2017-10-20T06:22:22.839Z,68.49
2017-10-20T06:23:34.783Z,68.59
2017-10-20T06:24:47.030Z,68.52
2017-10-20T06:25:59.525Z,68.62
2017-10-20T06:27:12.095Z,68.43
2017-10-20T06:28:24.342Z,68.4
2017-10-20T06:29:36.604Z,68.52
2017-10-20T06:30:49.159Z,68.3
2017-10-20T06:32:01.732Z,68.52
2017-10-20T06:33:14.298Z,68.3
2017-10-20T06:34:26.870Z,68.49
2017-10-20T06:35:39.440Z,68.43
2017-10-20T06:36:52.011Z,68.62
2017-10-20T06:38:04.256Z,68.71
2017-10-20T06:39:16.177Z,68.49
2017-10-20T06:40:28.747Z,68.59
2017-10-20T06:41:41.355Z,68.4
2017-10-20T06:42:53.632Z,68.49
2017-10-20T06:44:05.885Z,68.49
2017-10-20T06:45:18.470Z,68.24
2017-10-20T06:46:30.787Z,68.43
2017-10-20T06:47:43.364Z,68.52
2017-10-20T06:48:55.918Z,67.86
2017-10-20T06:50:08.507Z,68.43
2017-10-20T06:51:21.084Z,68.05
2017-10-20T06:52:32.705Z,68.24
2017-10-20T06:53:45.274Z,67.86
2017-10-20T06:54:57.850Z,68.15
2017-10-20T06:56:10.090Z,68.15
2017-10-20T06:57:22.337Z,68.15
2017-10-20T06:58:34.588Z,67.95
2017-10-20T06:59:47.154Z,67.95
2017-10-20T07:00:59.073Z,67.57
2017-10-20T07:02:11.645Z,67.67
2017-10-20T07:03:23.889Z,67.86
2017-10-20T07:04:36.486Z,67.76
2017-10-20T07:05:49.055Z,67.76
2017-10-20T07:07:01.319Z,67.76
2017-10-20T07:08:13.897Z,67.57
2017-10-20T07:09:26.494Z,67.67
2017-10-20T07:10:38.440Z,67.57
2017-10-20T07:11:50.685Z,67.67
2017-10-20T07:13:02.934Z,67.29
2017-10-20T07:14:15.501Z,67.29
2017-10-20T07:15:27.428Z,67.19
2017-10-20T07:16:39.993Z,67.1
2017-10-20T07:17:52.563Z,67.19
2017-10-20T07:19:04.809Z,67.29
2017-10-20T07:20:17.630Z,67.1
2017-10-20T07:21:30.200Z,67
2017-10-20T07:22:41.813Z,67
2017-10-20T07:23:54.391Z,67
2017-10-20T07:25:06.962Z,66.91
2017-10-20T07:26:19.533Z,67
2017-10-20T07:27:31.795Z,66.81
2017-10-20T07:28:44.351Z,66.72
2017-10-20T07:29:56.927Z,66.91
2017-10-20T07:31:09.520Z,66.62
2017-10-20T07:32:21.436Z,66.72
2017-10-20T07:33:33.381Z,66.46
2017-10-20T07:34:45.632Z,66.53
2017-10-20T07:35:57.873Z,66.75
2017-10-20T07:37:10.119Z,66.66
2017-10-20T07:38:22.690Z,66.46
2017-10-20T07:39:35.260Z,66.08
2017-10-20T07:40:47.830Z,66.27
2017-10-20T07:42:00.126Z,66.08
2017-10-20T07:43:12.700Z,66.56
2017-10-20T07:44:25.267Z,66.66
2017-10-20T07:45:37.838Z,66.56
2017-10-20T07:46:49.759Z,66.56
2017-10-20T07:48:02.347Z,66.18
2017-10-20T07:49:14.925Z,66.08
2017-10-20T07:50:27.497Z,65.99
2017-10-20T07:51:40.066Z,65.99
2017-10-20T07:52:52.580Z,66.08
2017-10-20T07:54:04.859Z,65.99
2017-10-20T07:55:17.129Z,66.08
2017-10-20T07:56:29.374Z,67.41
2017-10-20T07:57:41.621Z,68.46
2017-10-20T07:58:54.208Z,68.46
2017-10-20T08:00:06.787Z,68.18
2017-10-20T08:01:19.049Z,67.61
2017-10-20T08:02:31.643Z,67.74
2017-10-20T08:03:44.198Z,67.35
2017-10-20T08:04:56.773Z,67.55
2017-10-20T08:06:09.039Z,67.07
2017-10-20T08:07:21.609Z,66.69
2017-10-20T08:08:34.181Z,66.78
2017-10-20T08:09:46.777Z,67.45
2017-10-20T08:10:59.047Z,67.93
2017-10-20T08:12:11.295Z,71.83
2017-10-20T08:13:23.870Z,70.5
2017-10-20T08:14:36.434Z,70.12
2017-10-20T08:15:49.004Z,69.74
2017-10-20T08:17:01.250Z,70.02
2017-10-20T08:18:13.824Z,70.21
2017-10-20T08:19:26.393Z,69.93
2017-10-20T08:20:38.662Z,70.31
2017-10-20T08:21:50.941Z,70.82
2017-10-20T08:23:03.237Z,70.34
2017-10-20T08:24:15.554Z,69.58
2017-10-20T08:25:27.894Z,69.58
2017-10-20T08:26:40.509Z,69.2
2017-10-20T08:27:52.188Z,69.29
2017-10-20T08:29:03.853Z,69.96
2017-10-20T08:30:16.164Z,70.25
2017-10-20T08:31:28.500Z,69.77
2017-10-20T08:32:40.823Z,68.82
2017-10-20T08:33:53.148Z,68.66
2017-10-20T08:35:05.765Z,68.57
2017-10-20T08:36:18.401Z,69.23
2017-10-20T08:37:30.732Z,69.43
2017-10-20T08:38:42.723Z,69.62
2017-10-20T08:39:55.377Z,69.43
2017-10-20T08:41:08.020Z,69.43
2017-10-20T08:42:20.636Z,69.43
2017-10-20T08:43:32.953Z,69.62
2017-10-20T08:44:45.599Z,69.33
2017-10-20T08:45:58.240Z,71.52
2017-10-20T08:47:10.565Z,72.38
2017-10-20T08:48:23.198Z,72.51
2017-10-20T08:49:35.224Z,72.71
2017-10-20T08:50:47.554Z,71.46
2017-10-20T08:51:59.564Z,72.32
2017-10-20T08:53:11.877Z,71.94
2017-10-20T08:54:24.197Z,71.56
2017-10-20T08:55:36.492Z,76.62
2017-10-20T08:56:49.098Z,82.24
2017-10-20T08:58:01.650Z,78.43
2017-10-20T08:59:13.953Z,75.76
2017-10-20T09:00:26.601Z,75.18
2017-10-20T09:01:39.198Z,74.9
2017-10-20T09:02:51.829Z,75.47
2017-10-20T09:04:04.161Z,76.81
2017-10-20T09:05:16.773Z,76.04
2017-10-20T09:06:29.429Z,79.23
2017-10-20T09:07:42.072Z,77.8
2017-10-20T09:08:54.357Z,79.61
2017-10-20T09:10:06.360Z,78.28
2017-10-20T09:11:18.692Z,81.24
2017-10-20T09:12:31.005Z,82.09
2017-10-20T09:13:43.621Z,82.67
2017-10-20T09:14:56.289Z,83.81
2017-10-20T09:16:08.918Z,81.24
2017-10-20T09:17:20.917Z,82.38
2017-10-20T09:18:33.562Z,81.04
2017-10-20T09:19:45.820Z,84.58
2017-10-20T09:20:57.804Z,88.87
2017-10-20T09:22:10.445Z,88.2
2017-10-20T09:23:22.767Z,89.83
2017-10-20T09:24:35.087Z,86.77
2017-10-20T09:25:47.425Z,93.07
2017-10-20T09:26:59.421Z,89.97
2017-10-20T09:28:12.044Z,88.25
2017-10-20T09:29:24.666Z,87.1
2017-10-20T09:30:36.980Z,86.43
2017-10-20T09:31:49.614Z,94.93
2017-10-20T09:33:01.928Z,93.12
2017-10-20T09:34:14.234Z,89.2
2017-10-20T09:35:26.859Z,88.82
2017-10-20T09:36:39.472Z,87.87
2017-10-20T09:37:52.116Z,86.82
2017-10-20T09:39:04.761Z,87.58
2017-10-20T09:40:17.376Z,89.49
2017-10-20T09:41:29.602Z,88.06
2017-10-20T09:42:41.602Z,89.63
2017-10-20T09:43:54.267Z,88.58
2017-10-20T09:45:06.597Z,97.47
2017-10-20T09:46:18.922Z,93.26
2017-10-20T09:47:30.917Z,94.6
2017-10-20T09:48:43.571Z,94.22
2017-10-20T09:49:55.900Z,98.33
2017-10-20T09:51:07.917Z,98.61
2017-10-20T09:52:20.207Z,99.71
2017-10-20T09:53:32.836Z,96.94
2017-10-20T09:54:44.833Z,95.79
2017-10-20T09:55:57.473Z,95.12
2017-10-20T09:57:09.769Z,93.88
2017-10-20T09:58:22.085Z,99.99
2017-10-20T09:59:34.743Z,98.24
2017-10-20T10:00:47.131Z,98.52
2017-10-20T10:01:59.431Z,98.71
2017-10-20T10:03:11.702Z,97.37
2017-10-20T10:04:24.022Z,99.38
2017-10-20T10:05:36.353Z,99.99
2017-10-20T10:06:48.377Z,99.99
2017-10-20T10:08:01.004Z,99.99
2017-10-20T10:09:13.650Z,99.99
2017-10-20T10:10:26.293Z,99.99
2017-10-20T10:11:38.638Z,99.99
2017-10-20T10:12:50.942Z,99.99
2017-10-20T10:14:03.283Z,99.99
2017-10-20T10:15:15.908Z,99.99
2017-10-20T10:16:28.551Z,99.99
2017-10-20T10:17:40.908Z,99.99
2017-10-20T10:18:52.921Z,99.99
2017-10-20T10:20:04.594Z,99.99
2017-10-20T10:21:16.575Z,99.99
2017-10-20T10:22:29.200Z,99.99
2017-10-20T10:23:41.499Z,99.99
2017-10-20T10:24:54.175Z,99.99
2017-10-20T10:26:06.537Z,99.99
2017-10-20T10:27:18.841Z,99.99
2017-10-20T10:28:31.454Z,99.99
2017-10-20T10:29:44.082Z,99.99
2017-10-20T10:30:56.726Z,99.99
2017-10-20T10:32:09.043Z,99.99
2017-10-20T10:33:21.692Z,99.99
2017-10-20T10:34:34.354Z,99.99
2017-10-20T10:35:46.680Z,99.99
2017-10-20T10:36:59.343Z,99.99
2017-10-20T10:38:11.997Z,99.99
2017-10-20T10:39:24.620Z,99.99
2017-10-20T10:40:37.301Z,99.99
2017-10-20T10:41:49.959Z,99.99
2017-10-20T10:43:02.259Z,99.99
2017-10-20T10:44:14.902Z,99.99
2017-10-20T10:45:27.248Z,99.99
2017-10-20T10:46:39.541Z,99.99
2017-10-20T10:47:51.836Z,99.99
2017-10-20T10:49:03.862Z,99.99
2017-10-20T10:50:16.524Z,99.99
2017-10-20T10:51:28.819Z,99.99
2017-10-20T10:52:41.478Z,99.99
2017-10-20T10:53:54.119Z,99.99
2017-10-20T10:55:06.153Z,99.99
2017-10-20T10:56:18.462Z,99.99
2017-10-20T10:57:31.381Z,99.99
2017-10-20T10:58:43.707Z,99.99
2017-10-20T10:59:56.344Z,99.99
2017-10-20T11:01:08.663Z,99.99
2017-10-20T11:02:21.309Z,99.99
2017-10-20T11:03:33.990Z,99.99
2017-10-20T11:04:46.630Z,99.99
2017-10-20T11:05:58.952Z,99.99
2017-10-20T11:07:11.631Z,99.99
2017-10-20T11:08:23.955Z,99.99
2017-10-20T11:09:35.933Z,99.99
2017-10-20T11:10:48.242Z,99.99
2017-10-20T11:12:00.553Z,99.99
2017-10-20T11:13:12.873Z,99.99
2017-10-20T11:14:25.190Z,99.99
2017-10-20T11:15:37.840Z,99.99
2017-10-20T11:16:50.502Z,99.99
2017-10-20T11:18:02.483Z,99.99
2017-10-20T11:19:15.124Z,99.99
2017-10-20T11:20:27.446Z,99.99
2017-10-20T11:21:39.739Z,99.99
2017-10-20T11:22:52.047Z,99.99
2017-10-20T11:24:03.740Z,99.99
2017-10-20T11:25:16.377Z,99.99
2017-10-20T11:26:28.699Z,99.99
2017-10-20T11:27:41.018Z,99.99
2017-10-20T11:28:53.361Z,99.99
2017-10-20T11:30:05.659Z,99.99
2017-10-20T11:31:18.302Z,99.99
2017-10-20T11:32:30.939Z,99.99
2017-10-20T11:33:43.589Z,99.99
2017-10-20T11:34:56.242Z,99.99
2017-10-20T11:36:08.580Z,99.99
2017-10-20T11:37:20.930Z,99.99
2017-10-20T11:38:33.235Z,99.99
2017-10-20T11:39:45.556Z,99.99
2017-10-20T11:40:58.213Z,99.99
2017-10-20T11:42:10.533Z,99.99
2017-10-20T11:43:22.849Z,99.99
2017-10-20T11:44:35.178Z,99.99
2017-10-20T11:45:47.848Z,99.99
2017-10-20T11:47:00.169Z,99.99
2017-10-20T11:48:12.482Z,99.99
2017-10-20T11:49:24.469Z,99.99
2017-10-20T11:50:37.116Z,99.99
2017-10-20T11:51:49.758Z,99.99
2017-10-20T11:53:02.100Z,99.99
2017-10-20T11:54:14.762Z,99.99
2017-10-20T11:55:27.110Z,99.99
2017-10-20T11:56:39.739Z,99.99
2017-10-20T11:57:52.038Z,99.99
2017-10-20T11:59:04.685Z,99.99
2017-10-20T12:00:16.696Z,99.99
2017-10-20T12:01:28.997Z,99.99
2017-10-20T12:02:41.867Z,99.99
2017-10-20T12:03:54.510Z,99.99
2017-10-20T12:05:06.826Z,99.99
2017-10-20T12:06:19.150Z,99.99
2017-10-20T12:07:31.779Z,99.99
2017-10-20T12:08:44.109Z,99.99
2017-10-20T12:09:56.437Z,99.99
2017-10-20T12:11:08.733Z,99.99
2017-10-20T12:12:21.035Z,99.99
2017-10-20T12:13:33.654Z,99.99
2017-10-20T12:14:45.978Z,99.99
2017-10-20T12:15:58.290Z,99.99
2017-10-20T12:17:10.939Z,99.99
2017-10-20T12:18:23.588Z,99.99
2017-10-20T12:19:36.227Z,99.99
2017-10-20T12:20:48.868Z,99.99
2017-10-20T12:22:01.514Z,99.99
2017-10-20T12:23:13.839Z,99.99
2017-10-20T12:24:26.160Z,99.99
2017-10-20T12:25:37.834Z,99.99
2017-10-20T12:26:49.878Z,99.99
2017-10-20T12:28:02.530Z,99.99
2017-10-20T12:29:14.495Z,99.99
2017-10-20T12:30:26.834Z,99.99
2017-10-20T12:31:39.481Z,99.99
2017-10-20T12:32:52.150Z,99.99
2017-10-20T12:34:04.807Z,99.99
2017-10-20T12:35:16.813Z,99.99
2017-10-20T12:36:29.125Z,99.99
2017-10-20T12:37:41.758Z,99.99
2017-10-20T12:38:54.388Z,99.99
2017-10-20T12:40:06.394Z,99.99
2017-10-20T12:41:18.745Z,99.99
2017-10-20T12:42:31.371Z,99.99
2017-10-20T12:43:43.344Z,99.99
2017-10-20T12:44:55.646Z,99.99
2017-10-20T12:46:08.289Z,99.99
2017-10-20T12:47:20.933Z,99.99
2017-10-20T12:48:32.952Z,99.99
2017-10-20T12:49:45.614Z,99.99
2017-10-20T12:50:57.930Z,99.99
2017-10-20T12:52:10.577Z,99.99
2017-10-20T12:53:23.196Z,99.99
2017-10-20T12:54:35.508Z,99.99
2017-10-20T12:55:48.179Z,99.99
2017-10-20T12:57:00.170Z,99.99
2017-10-20T12:58:12.800Z,99.99
2017-10-20T12:59:25.458Z,99.99
2017-10-20T13:00:38.111Z,99.99
2017-10-20T13:01:50.732Z,99.99
2017-10-20T13:03:03.050Z,99.99
2017-10-20T13:04:15.691Z,99.99
2017-10-20T13:05:27.987Z,99.99
2017-10-20T13:06:40.636Z,99.99
2017-10-20T13:07:53.002Z,99.99
2017-10-20T13:09:05.309Z,99.99
2017-10-20T13:10:17.633Z,99.99
2017-10-20T13:11:29.936Z,99.99
2017-10-20T13:12:41.916Z,99.99
2017-10-20T13:13:54.218Z,99.99
2017-10-20T13:15:06.547Z,99.99
2017-10-20T13:16:19.199Z,99.99
2017-10-20T13:17:31.821Z,99.99
2017-10-20T13:18:44.389Z,99.99
2017-10-20T13:19:57.043Z,99.99
2017-10-20T13:21:09.376Z,99.99
2017-10-20T13:22:22.018Z,99.99
2017-10-20T13:23:34.325Z,99.99
2017-10-20T13:24:46.949Z,99.99
2017-10-20T13:25:59.238Z,99.99
2017-10-20T13:27:11.536Z,99.99
2017-10-20T13:28:23.861Z,99.99
2017-10-20T13:29:36.174Z,99.99
2017-10-20T13:30:48.842Z,99.99
2017-10-20T13:32:01.191Z,99.99
2017-10-20T13:33:13.857Z,99.99
2017-10-20T13:34:26.510Z,99.99
2017-10-20T13:35:39.173Z,99.99
2017-10-20T13:36:51.480Z,99.99
2017-10-20T13:38:03.806Z,99.99
2017-10-20T13:39:16.144Z,99.99
2017-10-20T13:40:28.782Z,99.99
2017-10-20T13:41:41.095Z,99.99
2017-10-20T13:42:53.104Z,99.99
2017-10-20T13:44:05.730Z,99.99
2017-10-20T13:45:18.372Z,99.99
2017-10-20T13:46:30.993Z,99.99
2017-10-20T13:47:42.962Z,99.99
2017-10-20T13:48:55.608Z,99.99
2017-10-20T13:50:08.226Z,99.99
2017-10-20T13:51:20.867Z,99.99
2017-10-20T13:52:32.865Z,99.99
2017-10-20T13:53:45.178Z,99.99
2017-10-20T13:54:57.814Z,99.99
2017-10-20T13:56:10.453Z,99.99
2017-10-20T13:57:23.093Z,99.99
2017-10-20T13:58:35.430Z,99.99
2017-10-20T13:59:48.086Z,99.99
2017-10-20T14:01:00.092Z,99.99
2017-10-20T14:02:12.092Z,99.99
2017-10-20T14:03:24.405Z,99.99
2017-10-20T14:04:37.056Z,99.99
2017-10-20T14:05:49.414Z,99.99
2017-10-20T14:07:01.770Z,99.99
2017-10-20T14:08:14.409Z,99.99
2017-10-20T14:09:27.052Z,99.99
2017-10-20T14:10:39.047Z,99.99
2017-10-20T14:11:51.329Z,99.99
2017-10-20T14:13:03.630Z,99.99
2017-10-20T14:14:16.269Z,99.99
2017-10-20T14:15:28.912Z,99.99
2017-10-20T14:16:41.577Z,99.99
2017-10-20T14:17:54.203Z,99.99
2017-10-20T14:19:06.832Z,99.99
2017-10-20T14:20:19.162Z,99.99
2017-10-20T14:21:31.772Z,99.99
2017-10-20T14:22:43.461Z,99.99
2017-10-20T14:23:56.085Z,99.99
2017-10-20T14:25:08.736Z,99.99
2017-10-20T14:26:20.729Z,99.99
2017-10-20T14:27:33.368Z,99.99
2017-10-20T14:28:45.369Z,99.99
2017-10-20T14:29:57.724Z,99.99
2017-10-20T14:31:09.720Z,99.99
2017-10-20T14:32:22.331Z,99.99
2017-10-20T14:33:34.699Z,99.99
2017-10-20T14:34:47.347Z,99.99
2017-10-20T14:35:59.670Z,99.99
2017-10-20T14:37:11.683Z,99.99
2017-10-20T14:38:23.998Z,99.99
2017-10-20T14:39:36.629Z,99.99
2017-10-20T14:40:49.246Z,99.99
2017-10-20T14:42:01.592Z,99.99
2017-10-20T14:43:13.941Z,99.99
2017-10-20T14:44:26.262Z,99.99
2017-10-20T14:45:38.907Z,99.99
2017-10-20T14:46:51.563Z,99.99
2017-10-20T14:48:04.216Z,99.96
2017-10-20T14:49:16.582Z,99.99
2017-10-20T14:50:29.212Z,99.99
2017-10-20T14:51:41.213Z,99.99
2017-10-20T14:52:53.527Z,99.67
2017-10-20T14:54:05.837Z,99.67
2017-10-20T14:55:18.444Z,99.38
2017-10-20T14:56:31.090Z,99.29
2017-10-20T14:57:43.736Z,98.81
2017-10-20T14:58:56.355Z,98.91
2017-10-20T15:00:08.658Z,98.33
2017-10-20T15:01:21.329Z,98.62
2017-10-20T15:02:33.664Z,98.81
2017-10-20T15:03:46.291Z,98.81
2017-10-20T15:04:58.917Z,98.81
2017-10-20T15:06:11.606Z,98.86
2017-10-20T15:07:24.221Z,97.8
2017-10-20T15:08:36.844Z,98.81
2017-10-20T15:09:49.463Z,97.95
2017-10-20T15:11:01.809Z,98.09
2017-10-20T15:12:13.813Z,98.09
2017-10-20T15:13:26.457Z,97.8
2017-10-20T15:14:38.775Z,98.09
2017-10-20T15:15:51.391Z,98
2017-10-20T15:17:04.058Z,97.42
2017-10-20T15:18:16.938Z,96.94
2017-10-20T15:19:29.582Z,97.04
2017-10-20T15:20:41.266Z,97.13
2017-10-20T15:21:53.244Z,97.33
2017-10-20T15:23:05.246Z,96.94
2017-10-20T15:24:17.896Z,97.04
2017-10-20T15:25:30.211Z,96.47
2017-10-20T15:26:42.510Z,96.47
2017-10-20T15:27:55.152Z,96.37
2017-10-20T15:29:07.793Z,95.79
2017-10-20T15:30:20.435Z,96.08
2017-10-20T15:31:33.069Z,96.08
2017-10-20T15:32:45.716Z,96.08
2017-10-20T15:33:57.701Z,95.98
2017-10-20T15:35:09.364Z,96.03
2017-10-20T15:36:22.009Z,96.37